createdAt,value
2022-12-04T00:01:32.025Z,4.77
2022-12-04T00:04:02.119Z,5.20
2022-12-04T00:06:29.851Z,5.00
2022-12-04T00:08:57.212Z,4.63
2022-12-04T00:11:26.256Z,4.93
2022-12-04T00:13:53.668Z,5.07
2022-12-04T00:16:22.597Z,4.60
2022-12-04T00:18:50.024Z,5.33
2022-12-04T00:21:18.333Z,4.83
2022-12-04T00:23:46.063Z,4.47
2022-12-04T00:26:18.100Z,4.70
2022-12-04T00:28:45.728Z,4.90
2022-12-04T00:31:15.782Z,4.63
2022-12-04T00:33:43.314Z,4.57
2022-12-04T00:36:12.182Z,5.20
2022-12-04T00:38:40.152Z,4.80
2022-12-04T00:41:11.671Z,4.83
2022-12-04T00:43:39.201Z,4.90
2022-12-04T00:46:06.824Z,4.80
2022-12-04T00:48:34.464Z,5.07
2022-12-04T00:51:05.333Z,4.67
2022-12-04T00:53:33.973Z,5.00
2022-12-04T00:56:05.364Z,4.67
2022-12-04T00:58:32.959Z,5.53
2022-12-04T01:01:07.708Z,5.00
2022-12-04T01:03:35.594Z,4.63
2022-12-04T01:06:03.422Z,4.93
2022-12-04T01:08:30.861Z,4.97
2022-12-04T01:10:58.416Z,4.63
2022-12-04T01:13:26.208Z,4.53
2022-12-04T01:15:53.688Z,5.03
2022-12-04T01:18:21.234Z,4.90
2022-12-04T01:20:49.503Z,4.67
2022-12-04T01:23:17.242Z,4.50
2022-12-04T01:25:51.831Z,4.40
2022-12-04T01:28:19.188Z,4.70
2022-12-04T01:30:46.484Z,4.20
2022-12-04T01:33:14.333Z,4.60
2022-12-04T01:35:41.708Z,4.60
2022-12-04T01:38:09.085Z,5.10
2022-12-04T01:40:36.513Z,4.20
2022-12-04T01:43:03.959Z,4.87
2022-12-04T01:45:44.116Z,5.07
2022-12-04T01:48:17.357Z,5.00
2022-12-04T01:50:45.513Z,4.47
2022-12-04T01:53:13.609Z,4.50
2022-12-04T01:55:41.322Z,4.57
2022-12-04T01:58:09.728Z,5.00
2022-12-04T02:00:37.179Z,4.73
2022-12-04T02:03:04.639Z,5.30
2022-12-04T02:05:32.162Z,4.80
2022-12-04T02:08:02.102Z,4.90
2022-12-04T02:10:36.519Z,4.20
2022-12-04T02:13:08.651Z,4.60
2022-12-04T02:15:40.002Z,4.70
2022-12-04T02:18:19.413Z,4.60
2022-12-04T02:20:55.896Z,4.53
2022-12-04T02:23:40.295Z,4.50
2022-12-04T02:26:13.856Z,4.93
2022-12-04T02:28:56.593Z,4.93
2022-12-04T02:31:28.657Z,5.20
2022-12-04T02:34:00.405Z,4.70
2022-12-04T02:36:32.482Z,4.50
2022-12-04T02:39:05.033Z,4.90
2022-12-04T02:41:38.864Z,4.80
2022-12-04T02:44:10.185Z,4.53
2022-12-04T02:46:39.358Z,4.53
2022-12-04T02:49:09.195Z,4.93
2022-12-04T02:51:38.344Z,4.50
2022-12-04T02:54:08.724Z,4.43
2022-12-04T02:56:38.467Z,4.73
2022-12-04T02:59:10.767Z,4.47
2022-12-04T03:01:40.655Z,4.83
2022-12-04T03:04:31.813Z,4.73
2022-12-04T03:07:01.733Z,4.57
2022-12-04T03:09:34.185Z,4.87
2022-12-04T03:12:23.287Z,5.20
2022-12-04T03:14:56.173Z,4.60
2022-12-04T03:17:30.141Z,4.83
2022-12-04T03:19:59.363Z,4.47
2022-12-04T03:22:27.140Z,4.63
2022-12-04T03:24:55.967Z,4.40
2022-12-04T03:27:47.311Z,4.50
2022-12-04T03:30:19.778Z,4.47
2022-12-04T03:32:50.115Z,4.13
2022-12-04T03:35:20.315Z,4.60
2022-12-04T03:37:47.623Z,4.43
2022-12-04T03:40:41.338Z,4.70
2022-12-04T03:43:17.484Z,3.77
2022-12-04T03:45:47.833Z,4.37
2022-12-04T03:48:22.946Z,4.70
2022-12-04T03:50:59.758Z,4.43
2022-12-04T03:53:46.005Z,4.40
2022-12-04T03:56:19.175Z,4.10
2022-12-04T03:58:48.760Z,4.30
2022-12-04T04:01:18.172Z,4.47
2022-12-04T04:03:52.986Z,4.27
2022-12-04T04:06:24.236Z,4.13
2022-12-04T04:08:55.384Z,4.50
2022-12-04T04:11:32.605Z,3.93
2022-12-04T04:14:22.089Z,4.77
2022-12-04T04:17:11.266Z,4.27
2022-12-04T04:19:58.588Z,4.60
2022-12-04T04:22:46.027Z,3.97
2022-12-04T04:25:17.998Z,4.40
2022-12-04T04:27:53.134Z,4.57
2022-12-04T04:38:39.897Z,4.50
2022-12-04T04:41:20.863Z,4.10
2022-12-04T04:43:48.207Z,4.63
2022-12-04T04:46:20.977Z,4.47
2022-12-04T04:48:49.913Z,4.07
2022-12-04T04:51:17.674Z,4.47
2022-12-04T04:53:49.940Z,4.60
2022-12-04T04:56:17.776Z,4.47
2022-12-04T04:58:45.254Z,4.33
2022-12-04T05:01:14.130Z,4.50
2022-12-04T05:03:41.736Z,4.40
2022-12-04T05:06:09.324Z,4.53
2022-12-04T05:08:36.841Z,4.43
2022-12-04T05:11:04.417Z,4.03
2022-12-04T05:13:32.534Z,4.30
2022-12-04T05:16:04.718Z,4.50
2022-12-04T05:18:32.801Z,4.97
2022-12-04T05:21:16.994Z,4.80
2022-12-04T05:23:44.510Z,4.23
2022-12-04T05:26:17.843Z,4.40
2022-12-04T05:28:45.214Z,4.33
2022-12-04T05:31:12.767Z,4.40
2022-12-04T05:33:40.374Z,4.43
2022-12-04T05:36:09.303Z,4.83
2022-12-04T05:38:37.232Z,4.40
2022-12-04T05:41:05.776Z,4.60
2022-12-04T05:43:33.452Z,4.70
2022-12-04T05:46:04.752Z,4.27
2022-12-04T05:48:32.779Z,4.37
2022-12-04T05:51:00.162Z,4.60
2022-12-04T05:53:27.523Z,4.03
2022-12-04T05:55:56.102Z,4.23
2022-12-04T05:58:23.440Z,5.00
2022-12-04T06:00:51.027Z,4.47
2022-12-04T06:03:18.597Z,4.60
2022-12-04T06:05:46.127Z,4.53
2022-12-04T06:08:13.886Z,4.40
2022-12-04T06:10:41.446Z,5.40
2022-12-04T06:13:09.189Z,3.93
2022-12-04T06:15:40.326Z,4.27
2022-12-04T06:18:07.940Z,4.77
2022-12-04T06:20:35.824Z,4.80
2022-12-04T06:23:03.397Z,4.17
2022-12-04T06:25:30.957Z,4.60
2022-12-04T06:27:58.352Z,4.70
2022-12-04T06:30:25.692Z,4.90
2022-12-04T06:32:53.112Z,4.67
2022-12-04T06:35:20.550Z,3.80
2022-12-04T06:37:48.257Z,4.33
2022-12-04T06:40:15.790Z,4.90
2022-12-04T06:42:43.290Z,4.27
2022-12-04T06:45:11.195Z,4.40
2022-12-04T06:47:38.612Z,4.43
2022-12-04T06:50:06.330Z,4.67
2022-12-04T06:52:34.352Z,4.90
2022-12-04T06:55:01.832Z,4.50
2022-12-04T06:57:29.320Z,5.30
2022-12-04T06:59:57.004Z,4.73
2022-12-04T07:02:25.009Z,4.53
2022-12-04T07:04:56.582Z,4.60
2022-12-04T07:07:24.133Z,4.37
2022-12-04T07:09:52.048Z,4.00
2022-12-04T07:12:19.585Z,4.77
2022-12-04T07:14:46.970Z,4.23
2022-12-04T07:17:14.523Z,4.30
2022-12-04T07:19:42.007Z,4.03
2022-12-04T07:22:09.402Z,4.60
2022-12-04T07:24:37.664Z,4.30
2022-12-04T07:27:05.434Z,4.67
2022-12-04T07:29:33.126Z,4.43
2022-12-04T07:32:00.714Z,4.80
2022-12-04T07:34:28.233Z,4.67
2022-12-04T07:36:55.623Z,4.50
2022-12-04T07:39:23.119Z,4.90
2022-12-04T07:41:50.468Z,4.57
2022-12-04T07:44:18.699Z,4.67
2022-12-04T07:46:46.091Z,4.60
2022-12-04T07:49:13.741Z,4.67
2022-12-04T07:51:41.167Z,5.07
2022-12-04T07:54:09.419Z,4.67
2022-12-04T07:56:36.844Z,4.93
2022-12-04T07:59:04.727Z,4.70
2022-12-04T08:01:32.732Z,4.47
2022-12-04T08:04:01.465Z,4.87
2022-12-04T08:06:30.110Z,3.97
2022-12-04T08:08:57.615Z,4.57
2022-12-04T08:11:26.054Z,4.60
2022-12-04T08:13:57.515Z,4.27
2022-12-04T08:16:25.592Z,4.17
2022-12-04T08:18:53.983Z,5.00
2022-12-04T08:21:22.397Z,4.57
2022-12-04T08:23:53.507Z,4.67
2022-12-04T08:26:21.864Z,4.77
2022-12-04T08:28:49.583Z,4.67
2022-12-04T08:31:18.547Z,5.10
2022-12-04T08:33:46.427Z,5.67
2022-12-04T08:36:17.178Z,4.37
2022-12-04T08:38:44.635Z,4.90
2022-12-04T08:41:13.970Z,4.37
2022-12-04T08:43:41.961Z,4.77
2022-12-04T08:46:11.367Z,4.57
2022-12-04T08:48:39.256Z,4.70
2022-12-04T08:51:08.320Z,4.60
2022-12-04T08:53:36.649Z,4.47
2022-12-04T08:56:04.535Z,4.60
2022-12-04T08:58:32.379Z,4.67
2022-12-04T09:01:11.126Z,4.80
2022-12-04T09:03:39.090Z,4.57
2022-12-04T09:06:07.292Z,4.43
2022-12-04T09:08:35.354Z,4.80
2022-12-04T09:11:06.770Z,4.67
2022-12-04T09:13:34.697Z,4.63
2022-12-04T09:16:05.684Z,4.57
2022-12-04T09:18:33.301Z,4.60
2022-12-04T09:21:01.547Z,4.80
2022-12-04T09:23:29.421Z,5.10
2022-12-04T09:25:56.922Z,4.93
2022-12-04T09:28:24.413Z,4.93
2022-12-04T09:31:02.069Z,4.27
2022-12-04T09:33:30.712Z,4.47
2022-12-04T09:36:01.986Z,5.63
2022-12-04T09:38:30.563Z,8.97
2022-12-04T09:40:58.068Z,6.70
2022-12-04T09:43:30.548Z,5.80
2022-12-04T09:46:02.406Z,5.10
2022-12-04T09:48:33.671Z,5.60
2022-12-04T09:51:02.628Z,5.23
2022-12-04T09:53:34.774Z,5.27
2022-12-04T09:56:04.964Z,5.30
2022-12-04T09:58:38.497Z,5.17
2022-12-04T10:01:06.783Z,5.60
2022-12-04T10:03:34.756Z,4.97
2022-12-04T10:06:02.227Z,5.50
2022-12-04T10:08:31.906Z,6.17
2022-12-04T10:10:59.679Z,5.50
2022-12-04T10:13:27.015Z,5.73
2022-12-04T10:15:59.472Z,5.20
2022-12-04T10:18:42.116Z,5.13
2022-12-04T10:21:18.549Z,6.20
2022-12-04T10:23:52.072Z,5.63
2022-12-04T10:26:21.638Z,5.43
2022-12-04T10:28:55.219Z,5.47
2022-12-04T10:31:24.011Z,5.53
2022-12-04T10:33:57.005Z,5.83
2022-12-04T10:36:25.688Z,5.67
2022-12-04T10:38:53.068Z,5.70
2022-12-04T10:41:29.996Z,5.80
2022-12-04T10:43:57.541Z,5.70
2022-12-04T10:46:26.439Z,5.73
2022-12-04T10:48:57.128Z,5.93
2022-12-04T10:51:24.540Z,5.77
2022-12-04T10:53:52.646Z,5.53
2022-12-04T10:56:21.585Z,5.20
2022-12-04T10:59:05.206Z,8.93
2022-12-04T11:01:36.383Z,6.83
2022-12-04T11:04:06.643Z,6.13
2022-12-04T11:06:35.513Z,5.30
2022-12-04T11:09:04.543Z,6.03
2022-12-04T11:11:35.708Z,6.30
2022-12-04T11:14:03.082Z,6.67
2022-12-04T11:16:33.908Z,6.77
2022-12-04T11:19:01.588Z,6.63
2022-12-04T11:21:30.463Z,7.07
2022-12-04T11:23:58.751Z,6.63
2022-12-04T11:26:30.889Z,6.20
2022-12-04T11:29:01.463Z,7.40
2022-12-04T11:31:29.729Z,6.80
2022-12-04T11:33:59.300Z,6.57
2022-12-04T11:36:37.134Z,6.27
2022-12-04T11:39:24.822Z,6.33
2022-12-04T11:42:06.458Z,7.13
2022-12-04T11:44:35.253Z,6.87
2022-12-04T11:47:03.794Z,6.00
2022-12-04T11:49:32.263Z,6.70
2022-12-04T11:52:13.063Z,6.73
2022-12-04T11:54:52.731Z,6.87
2022-12-04T11:57:23.255Z,6.03
2022-12-04T12:00:12.172Z,6.77
2022-12-04T12:02:49.171Z,7.67
2022-12-04T12:05:37.132Z,7.57
2022-12-04T12:08:07.616Z,6.27
2022-12-04T12:10:49.117Z,6.23
2022-12-04T12:13:19.394Z,6.03
2022-12-04T12:15:59.058Z,6.23
2022-12-04T12:18:45.202Z,6.60
2022-12-04T12:21:12.638Z,6.30
2022-12-04T12:24:03.048Z,6.07
2022-12-04T12:26:46.163Z,6.03
2022-12-04T12:29:19.802Z,6.53
2022-12-04T12:31:47.627Z,6.87
2022-12-04T12:34:33.857Z,6.70
2022-12-04T12:37:03.677Z,6.67
2022-12-04T12:39:36.614Z,6.77
2022-12-04T12:42:04.054Z,7.30
2022-12-04T12:44:36.153Z,7.00
2022-12-04T12:47:13.857Z,7.30
2022-12-04T12:49:47.189Z,7.30
2022-12-04T12:52:17.742Z,6.70
2022-12-04T12:54:48.801Z,7.07
2022-12-04T12:57:19.438Z,6.83
2022-12-04T12:59:48.718Z,7.00
2022-12-04T13:02:22.428Z,7.83
2022-12-04T13:04:53.135Z,6.87
2022-12-04T13:07:51.051Z,6.87
2022-12-04T13:10:27.474Z,6.80
2022-12-04T13:12:54.880Z,6.97
2022-12-04T13:15:25.351Z,8.10
2022-12-04T13:17:55.639Z,7.03
2022-12-04T13:20:25.790Z,7.17
2022-12-04T13:23:02.839Z,8.07
2022-12-04T13:25:45.647Z,7.73
2022-12-04T13:28:22.675Z,7.67
2022-12-04T13:30:57.580Z,7.77
2022-12-04T13:33:47.981Z,8.20
2022-12-04T13:36:36.454Z,9.30
2022-12-04T13:39:25.730Z,7.43
2022-12-04T13:42:00.697Z,7.60
2022-12-04T13:44:28.795Z,8.10
2022-12-04T13:47:01.080Z,8.27
2022-12-04T13:49:30.355Z,7.63
2022-12-04T13:51:59.149Z,8.00
2022-12-04T13:54:28.448Z,8.23
2022-12-04T13:56:57.666Z,8.07
2022-12-04T13:59:28.283Z,7.63
2022-12-04T14:01:57.127Z,8.30
2022-12-04T14:04:25.655Z,7.60
2022-12-04T14:06:53.627Z,8.13
2022-12-04T14:09:23.488Z,7.63
2022-12-04T14:11:53.591Z,8.17
2022-12-04T14:14:27.548Z,7.70
2022-12-04T14:16:56.408Z,8.60
2022-12-04T14:19:37.499Z,8.33
2022-12-04T14:22:04.989Z,8.40
2022-12-04T14:24:35.187Z,8.90
2022-12-04T14:27:11.789Z,7.60
2022-12-04T14:29:48.425Z,7.73
2022-12-04T14:32:22.927Z,7.97
2022-12-04T14:34:50.488Z,7.50
2022-12-04T14:37:27.935Z,7.77
2022-12-04T14:39:56.468Z,7.47
2022-12-04T14:42:26.591Z,7.40
2022-12-04T14:44:56.579Z,7.33
2022-12-04T14:47:24.170Z,8.27
2022-12-04T14:50:10.452Z,7.33
2022-12-04T14:52:50.963Z,7.33
2022-12-04T14:55:25.881Z,7.37
2022-12-04T14:57:58.709Z,7.77
2022-12-04T15:00:26.273Z,7.07
2022-12-04T15:02:55.765Z,8.27
2022-12-04T15:05:27.921Z,7.97
2022-12-04T15:07:59.916Z,7.83
2022-12-04T15:10:47.201Z,7.37
2022-12-04T15:13:25.382Z,7.93
2022-12-04T15:15:52.967Z,7.20
2022-12-04T15:18:20.367Z,7.93
2022-12-04T15:20:53.947Z,8.13
2022-12-04T15:23:32.040Z,9.30
2022-12-04T15:26:01.486Z,7.63
2022-12-04T15:28:40.848Z,9.10
2022-12-04T15:31:11.540Z,8.30
2022-12-04T15:33:39.816Z,8.83
2022-12-04T15:36:13.517Z,7.80
2022-12-04T15:38:41.517Z,7.97
2022-12-04T15:41:25.639Z,7.63
2022-12-04T15:43:53.000Z,7.83
2022-12-04T15:46:24.954Z,8.27
2022-12-04T15:48:52.481Z,7.67
2022-12-04T15:51:21.603Z,8.80
2022-12-04T15:53:49.176Z,8.23
2022-12-04T15:56:21.093Z,8.17
2022-12-04T15:58:57.812Z,8.17
2022-12-04T16:01:25.560Z,8.90
2022-12-04T16:03:54.132Z,8.67
2022-12-04T16:06:29.447Z,8.83
2022-12-04T16:09:15.556Z,7.97
2022-12-04T16:11:44.018Z,8.50
2022-12-04T16:14:17.461Z,9.00
2022-12-04T16:16:49.738Z,9.80
2022-12-04T16:19:33.790Z,7.90
2022-12-04T16:22:05.615Z,9.27
2022-12-04T16:24:36.052Z,8.33
2022-12-04T16:27:15.871Z,9.27
2022-12-04T16:29:43.327Z,8.47
2022-12-04T16:32:15.568Z,9.17
2022-12-04T16:34:45.435Z,8.87
2022-12-04T16:37:17.618Z,8.33
2022-12-04T16:39:45.435Z,8.27
2022-12-04T16:42:18.113Z,8.50
2022-12-04T16:44:45.755Z,8.60
2022-12-04T16:47:13.740Z,9.07
2022-12-04T16:49:41.899Z,9.50
2022-12-04T16:52:10.696Z,9.33
2022-12-04T16:54:38.546Z,9.30
2022-12-04T16:57:06.270Z,9.13
2022-12-04T16:59:33.753Z,9.10
2022-12-04T17:02:01.914Z,9.80
2022-12-04T17:04:29.619Z,10.27
2022-12-04T17:06:57.099Z,8.87
2022-12-04T17:09:24.513Z,9.00
2022-12-04T17:11:51.917Z,9.93
2022-12-04T17:14:19.645Z,10.30
2022-12-04T17:16:47.469Z,10.00
2022-12-04T17:19:15.315Z,10.00
2022-12-04T17:21:42.945Z,10.17
2022-12-04T17:24:10.473Z,10.20
2022-12-04T17:26:37.961Z,10.03
2022-12-04T17:29:05.428Z,10.77
2022-12-04T17:31:32.907Z,10.57
2022-12-04T17:34:00.498Z,10.37
2022-12-04T17:36:27.944Z,9.57
2022-12-04T17:38:56.261Z,10.87
2022-12-04T17:41:24.022Z,10.43
2022-12-04T17:43:51.745Z,10.30
2022-12-04T17:46:21.724Z,10.47
2022-12-04T17:48:49.913Z,10.40
2022-12-04T17:51:18.969Z,11.23
2022-12-04T17:53:46.754Z,10.20
2022-12-04T17:56:18.366Z,11.13
2022-12-04T17:58:47.729Z,10.33
2022-12-04T18:01:19.841Z,11.23
2022-12-04T18:03:51.609Z,10.17
2022-12-04T18:06:20.739Z,10.67
2022-12-04T18:08:50.230Z,11.10
2022-12-04T18:11:20.847Z,11.80
2022-12-04T18:13:55.499Z,11.10
2022-12-04T18:16:23.103Z,10.50
2022-12-04T18:18:50.878Z,11.27
2022-12-04T18:21:21.081Z,11.07
2022-12-04T18:23:48.647Z,12.30
2022-12-04T18:26:17.712Z,11.77
2022-12-04T18:28:45.300Z,12.30
2022-12-04T18:31:13.153Z,11.87
2022-12-04T18:33:41.563Z,10.63
2022-12-04T18:36:11.908Z,10.53
2022-12-04T18:38:39.485Z,12.63
2022-12-04T18:41:07.910Z,11.53
2022-12-04T18:43:39.348Z,11.33
2022-12-04T18:46:08.357Z,12.00
2022-12-04T18:48:36.789Z,11.50
2022-12-04T18:51:16.804Z,10.83
2022-12-04T18:53:44.818Z,10.30
2022-12-04T18:56:12.427Z,10.57
2022-12-04T18:58:40.056Z,10.77
2022-12-04T19:01:08.787Z,11.00
2022-12-04T19:03:36.599Z,11.17
2022-12-04T19:06:04.287Z,10.43
2022-12-04T19:08:34.355Z,11.63
2022-12-04T19:11:11.844Z,11.60
2022-12-04T19:13:39.738Z,12.60
2022-12-04T19:16:12.334Z,11.33
2022-12-04T19:18:39.999Z,11.73
2022-12-04T19:21:08.254Z,11.40
2022-12-04T19:23:35.919Z,10.90
2022-12-04T19:26:03.842Z,11.20
2022-12-04T19:28:31.388Z,11.80
2022-12-04T19:30:58.740Z,11.40
2022-12-04T19:33:26.225Z,12.03
2022-12-04T19:36:01.141Z,11.37
2022-12-04T19:38:29.395Z,12.07
2022-12-04T19:41:04.390Z,11.43
2022-12-04T19:43:31.866Z,11.17
2022-12-04T19:45:59.342Z,11.03
2022-12-04T19:48:27.467Z,11.40
2022-12-04T19:50:55.189Z,11.57
2022-12-04T19:53:22.690Z,10.67
2022-12-04T19:55:50.212Z,11.43
2022-12-04T19:58:17.632Z,10.67
2022-12-04T20:00:48.456Z,11.23
2022-12-04T20:03:16.085Z,11.20
2022-12-04T20:05:43.507Z,11.43
2022-12-04T20:10:37.328Z,11.07
2022-12-04T20:13:06.193Z,11.17
2022-12-04T20:15:37.066Z,11.40
2022-12-04T20:18:05.016Z,11.50
2022-12-04T20:20:32.817Z,10.87
2022-12-04T20:23:00.224Z,10.67
2022-12-04T20:25:27.642Z,10.40
2022-12-04T20:27:55.473Z,10.90
2022-12-04T20:30:22.979Z,10.40
2022-12-04T20:32:50.395Z,10.50
2022-12-04T20:35:17.945Z,11.63
2022-12-04T20:37:45.458Z,11.03
2022-12-04T20:40:13.911Z,11.93
2022-12-04T20:42:43.823Z,11.00
2022-12-04T20:45:11.949Z,11.40
2022-12-04T20:47:39.616Z,11.03
2022-12-04T20:50:07.817Z,11.73
2022-12-04T20:52:35.225Z,11.00
2022-12-04T20:55:03.073Z,11.63
2022-12-04T20:57:32.960Z,11.23
2022-12-04T21:00:00.395Z,11.77
2022-12-04T21:02:28.121Z,10.73
2022-12-04T21:04:55.538Z,11.10
2022-12-04T21:07:23.038Z,11.67
2022-12-04T21:09:50.454Z,11.30
2022-12-04T21:12:41.476Z,11.13
2022-12-04T21:15:29.332Z,11.00
2022-12-04T21:17:56.843Z,10.10
2022-12-04T21:20:24.470Z,11.57
2022-12-04T21:22:51.826Z,11.57
2022-12-04T21:25:19.521Z,11.37
2022-12-04T21:27:46.956Z,11.10
2022-12-04T21:30:14.628Z,11.20
2022-12-04T21:32:42.070Z,11.17
2022-12-04T21:35:09.664Z,10.70
2022-12-04T21:37:37.264Z,10.40
2022-12-04T21:40:04.888Z,11.67
2022-12-04T21:42:32.838Z,10.27
2022-12-04T21:45:01.025Z,10.47
2022-12-04T21:47:29.322Z,11.20
2022-12-04T21:49:56.984Z,11.13
2022-12-04T21:52:24.782Z,11.80
2022-12-04T21:54:53.088Z,11.53
2022-12-04T21:57:21.036Z,10.97
2022-12-04T21:59:48.462Z,11.77
2022-12-04T22:02:16.445Z,13.27
2022-12-04T22:04:43.867Z,13.50
2022-12-04T22:07:11.891Z,12.17
2022-12-04T22:09:40.290Z,11.97
2022-12-04T22:12:26.852Z,11.70
2022-12-04T22:14:56.480Z,12.20
2022-12-04T22:17:26.577Z,12.10
2022-12-04T22:19:55.522Z,11.37
2022-12-04T22:22:24.121Z,11.03
2022-12-04T22:24:51.505Z,10.87
2022-12-04T22:27:18.946Z,11.83
2022-12-04T22:29:50.912Z,11.23
2022-12-04T22:32:18.942Z,11.77
2022-12-04T22:34:48.714Z,11.60
2022-12-04T22:37:16.291Z,11.43
2022-12-04T22:39:43.730Z,10.90
2022-12-04T22:42:11.104Z,10.90
2022-12-04T22:44:38.492Z,10.53
2022-12-04T22:47:05.947Z,10.70
2022-12-04T22:49:33.367Z,11.63
2022-12-04T22:52:00.864Z,10.30
2022-12-04T22:54:28.189Z,11.47
2022-12-04T22:56:55.565Z,11.07
2022-12-04T22:59:22.931Z,10.80
2022-12-04T23:01:50.394Z,10.30
2022-12-04T23:04:17.738Z,11.00
2022-12-04T23:06:45.111Z,10.47
2022-12-04T23:09:13.875Z,11.23
2022-12-04T23:11:41.630Z,10.13
2022-12-04T23:14:10.087Z,11.10
2022-12-04T23:16:38.164Z,10.63
2022-12-04T23:19:06.846Z,10.87
2022-12-04T23:21:34.489Z,10.80
2022-12-04T23:24:01.882Z,10.40
2022-12-04T23:26:36.648Z,10.40
2022-12-04T23:29:13.507Z,10.17
2022-12-04T23:31:51.341Z,10.03
2022-12-04T23:34:18.886Z,10.47
2022-12-04T23:36:46.275Z,10.53
2022-12-04T23:39:13.902Z,10.93
2022-12-04T23:41:41.359Z,10.73
2022-12-04T23:44:08.716Z,11.27
2022-12-04T23:46:36.248Z,11.43
2022-12-04T23:49:03.847Z,9.90
2022-12-04T23:51:31.360Z,11.20
2022-12-04T23:53:59.275Z,11.13
2022-12-04T23:56:27.832Z,10.77
2022-12-04T23:58:56.360Z,10.20
